ADDS METAR Data INFO
IDs: Format: Raw Decoded Include TAF

Data at: 0837 UTC 21 Oct 2017

K0VG 210815Z AUTO 00000KT 10SM CLR 06/06 A3028 RMK AO2
K0VG 210755Z AUTO 00000KT 10SM CLR 06/06 A3028 RMK AO2
K0VG 210735Z AUTO 00000KT 10SM CLR 07/06 A3027 RMK AO2
K0VG 210715Z AUTO 00000KT 10SM CLR 07/06 A3027 RMK AO2
K0VG 210655Z AUTO 00000KT 10SM 07/07 A3027 RMK AO2
K0VG 210635Z AUTO 00000KT 10SM CLR 07/06 A3027 RMK AO2
K0VG 210615Z AUTO 00000KT 9SM CLR 07/07 A3027 RMK AO2
K0VG 210555Z AUTO 00000KT 10SM CLR 07/07 A3027 RMK AO2
K0VG 210535Z AUTO 00000KT 10SM CLR 07/07 A3027 RMK AO2
K0VG 210515Z AUTO 00000KT 10SM CLR 08/08 A3027 RMK AO2
K0VG 210455Z AUTO 00000KT 10SM CLR 08/08 A3027 RMK AO2
K0VG 210435Z AUTO 00000KT 10SM CLR 08/08 A3027 RMK AO2
K0VG 210415Z AUTO 00000KT 09/09 A3028 RMK AO2
K0VG 210355Z AUTO 00000KT 10SM CLR 09/08 A3028 RMK AO2
K0VG 210335Z AUTO 00000KT 10SM CLR 09/08 A3028 RMK AO2
K0VG 210315Z AUTO 00000KT 10SM CLR 10/09 A3028 RMK AO2
K0VG 210255Z AUTO 00000KT 10SM CLR 09/09 A3028 RMK AO2
K0VG 210235Z AUTO 00000KT 10SM CLR 10/10 A3028 RMK AO2
K0VG 210215Z AUTO 00000KT 10SM CLR 10/09 A3028 RMK AO2
K0VG 210155Z AUTO 00000KT 10SM CLR 11/10 A3027 RMK AO2
K0VG 210135Z AUTO 00000KT 10SM 11/09 A3027 RMK AO2
K0VG 210055Z AUTO 00000KT 10SM CLR 12/10 A3026 RMK AO2
K0VG 210035Z AUTO 00000KT 10SM CLR 13/10 A3026 RMK AO2
K0VG 210015Z AUTO 00000KT 10SM CLR 13/10 A3025 RMK AO2
K0VG 202355Z AUTO 00000KT 10SM CLR 14/10 A3025 RMK AO2
K0VG 202335Z AUTO 00000KT 10SM CLR 15/10 A3025 RMK AO2
K0VG 202315Z AUTO 00000KT 10SM CLR 17/10 A3024 RMK AO2
K0VG 202255Z AUTO 00000KT 10SM CLR 18/10 A3023 RMK AO2
K0VG 202235Z AUTO 00000KT 10SM CLR 21/09 A3023 RMK AO2
K0VG 202215Z AUTO 00000KT 10SM CLR 23/07 A3024 RMK AO2
K0VG 202155Z AUTO 00000KT 10SM CLR 24/07 A3024 RMK AO2
K0VG 202135Z AUTO 00000KT 10SM CLR 24/07 A3024 RMK AO2
K0VG 202115Z AUTO 00000KT 10SM CLR 24/07 A3024 RMK AO2
K0VG 202055Z AUTO 00000KT 10SM CLR 25/07 A3025 RMK AO2
K0VG 202035Z AUTO 22004KT 10SM CLR 25/06 A3025 RMK AO2
K0VG 202015Z AUTO 00000KT 10SM CLR 25/07 A3025 RMK AO2
K0VG 201955Z AUTO 00000KT 10SM CLR 24/06 A3026 RMK AO2
K0VG 201935Z AUTO 09003KT 10SM CLR 24/06 A3026 RMK AO2
K0VG 201915Z AUTO 00000KT 10SM CLR 24/07 A3027 RMK AO2
K0VG 201855Z AUTO 00000KT 10SM CLR 24/07 A3027 RMK AO2
K0VG 201835Z AUTO 00000KT 10SM CLR 23/07 A3028 RMK AO2
K0VG 201815Z AUTO 12004KT 10SM CLR 23/07 A3029 RMK AO2
K0VG 201755Z AUTO 00000KT 10SM CLR 23/08 A3030 RMK AO2
K0VG 201735Z AUTO 00000KT 9SM CLR 23/08 A3031 RMK AO2
K0VG 201715Z AUTO 00000KT 7SM CLR 22/08 A3032 RMK AO2
K0VG 201655Z AUTO 00000KT 5SM HZ CLR 21/08 A3033 RMK AO2
K0VG 201635Z AUTO 13003KT 8SM CLR 21/08 A3034 RMK AO2
K0VG 201615Z AUTO 00000KT 10SM CLR 20/08 A3035 RMK AO2
K0VG 201555Z AUTO 00000KT 10SM CLR 19/08 A3036 RMK AO2
K0VG 201535Z AUTO 00000KT 10SM CLR 18/09 A3037 RMK AO2
K0VG 201515Z AUTO 00000KT 10SM CLR 17/08 A3037 RMK AO2
K0VG 201455Z AUTO 00000KT 10SM CLR 15/08 A3038 RMK AO2
K0VG 201435Z AUTO 00000KT 10SM CLR 14/08 A3038 RMK AO2
K0VG 201415Z AUTO 00000KT 10SM CLR 12/08 A3038 RMK AO2
K0VG 201355Z AUTO 00000KT 10SM CLR 10/07 A3038 RMK AO2
K0VG 201335Z AUTO 00000KT 10SM CLR 09/07 A3038 RMK AO2
K0VG 201315Z AUTO 00000KT 10SM CLR 07/06 A3038 RMK AO2
K0VG 201255Z AUTO 00000KT 10SM CLR 07/05 A3038 RMK AO2
K0VG 201235Z AUTO 00000KT 10SM CLR 05/05 A3038 RMK AO2
K0VG 201215Z AUTO 00000KT 10SM CLR 04/04 A3037 RMK AO2
K0VG 201155Z AUTO 00000KT 10SM CLR 03/03 A3037 RMK AO2
K0VG 201135Z AUTO 00000KT 10SM CLR 04/03 A3036 RMK AO2
K0VG 201115Z AUTO 00000KT 10SM CLR 03/03 A3036 RMK AO2
K0VG 201055Z AUTO 00000KT 10SM CLR 03/03 A3035 RMK AO2
K0VG 201035Z AUTO 00000KT 10SM CLR 04/04 A3035 RMK AO2
K0VG 201015Z AUTO 00000KT 10SM CLR 04/04 A3034 RMK AO2
K0VG 200955Z AUTO 00000KT 10SM CLR 04/04 A3033 RMK AO2
K0VG 200935Z AUTO 00000KT 10SM CLR 04/04 A3032 RMK AO2
K0VG 200915Z AUTO 00000KT 10SM CLR 04/04 A3032 RMK AO2
K0VG 200855Z AUTO 00000KT 10SM CLR 04/03 A3032 RMK AO2
K0VG 200835Z AUTO 00000KT 10SM CLR 05/05 A3032 RMK AO2
K0VG 200815Z AUTO 00000KT 10SM CLR 04/04 A3032 RMK AO2
K0VG 200755Z AUTO 00000KT 10SM CLR 04/04 A3032 RMK AO2
K0VG 200735Z AUTO 00000KT 10SM CLR 05/04 A3032 RMK AO2
K0VG 200715Z AUTO 00000KT 10SM CLR 05/05 A3032 RMK AO2
K0VG 200655Z AUTO 00000KT 10SM CLR 05/05 A3032 RMK AO2
K0VG 200635Z AUTO 00000KT 10SM CLR 05/05 A3032 RMK AO2
K0VG 200615Z AUTO 00000KT 10SM CLR 05/05 A3032 RMK AO2
K0VG 200555Z AUTO 00000KT 10SM CLR 06/05 A3032 RMK AO2
K0VG 200535Z AUTO 00000KT 10SM CLR 05/05 A3032 RMK AO2
K0VG 200515Z AUTO 00000KT 10SM CLR 06/05 A3033 RMK AO2
K0VG 200455Z AUTO 00000KT 10SM CLR 06/06 A3032 RMK AO2
K0VG 200435Z AUTO 00000KT 10SM CLR 07/06 A3032 RMK AO2
K0VG 200415Z AUTO 00000KT A3031 RMK AO2
K0VG 200355Z AUTO 00000KT 10SM CLR 07/07 A3032 RMK AO2
K0VG 200335Z AUTO 00000KT 10SM CLR 07/07 A3032 RMK AO2
K0VG 200315Z AUTO 00000KT 10SM CLR 08/07 A3031 RMK AO2
K0VG 200255Z AUTO 00000KT 10SM CLR 08/07 A3031 RMK AO2
K0VG 200235Z AUTO 00000KT 10SM CLR 08/07 A3031 RMK AO2
K0VG 200215Z AUTO 00000KT 10SM CLR 08/07 A3031 RMK AO2
K0VG 200155Z AUTO 00000KT 10SM CLR 09/08 A3031 RMK AO2
K0VG 200135Z AUTO 00000KT 09/08 A3030 RMK AO2
K0VG 200115Z AUTO 00000KT 10SM CLR 09/08 A3030 RMK AO2
K0VG 200055Z AUTO 00000KT 10SM CLR 10/08 A3030 RMK AO2
K0VG 200035Z AUTO 00000KT 10SM CLR 11/08 A3030 RMK AO2
K0VG 200015Z AUTO 00000KT 10SM CLR 12/08 A3030 RMK AO2
K0VG 192355Z AUTO 00000KT 10SM CLR 12/08 A3030 RMK AO2
K0VG 192335Z AUTO 00000KT 10SM CLR 14/09 A3029 RMK AO2
K0VG 192315Z AUTO 00000KT 10SM CLR 15/09 A3029 RMK AO2
K0VG 192255Z AUTO 00000KT 10SM CLR 17/08 A3028 RMK AO2
K0VG 192235Z AUTO 00000KT 10SM CLR 19/07 A3028 RMK AO2
K0VG 192215Z AUTO 00000KT 10SM CLR 20/07 A3028 RMK AO2
K0VG 192155Z AUTO 00000KT 10SM CLR 21/06 A3028 RMK AO2
K0VG 192135Z AUTO 00000KT 10SM CLR 22/05 A3028 RMK AO2
K0VG 192115Z AUTO 00000KT 10SM CLR 22/05 A3027 RMK AO2
K0VG 192055Z AUTO 00000KT 10SM CLR 22/05 A3027 RMK AO2